Azamara Journey — 9HOB8 — position and weather

sailwx.info

Track history (hours):
 
Tides and Currents Weather Stations Pressure Air Temp Water Temp Dewpoint Dewpoint Depression Visibility Wind Speed Wind Dir Waves Ship Positions

Azamara Journey

Last reported at 2017-Sep-23 11:00 UTC. Time now 2017-Sep-23 14:50 UTC.
Position N 41°48' E 003°06'.

Type: Ship. MMSI: 256204000.

Wind from 070 at 5 knots

Barometer 1019.9 mb
Air temperature 25.0 ° C
Visibility: greater than 10.8 NM
Dewpoint 18.8 ° C
Water temperature 23.0 ° C

Date/timePositionNaut miles runAvg speedWind from/ knotsBaromVisibWave heightAir tempDewpointWater temp
2017-Sep-23 11:00N 41°48' E 003°06'48 4.4 070 / 51019.910.8 25.018.823.0
2017-Sep-23 00:00N 41°00' E 003°06'67 3.1 330 / 31019.9 5.4 21.017.823.0
2017-Sep-22 02:00N 39°56' E 002°40'611.8
2017-Sep-22 01:30N 39°54' E 002°32'611.6
2017-Sep-22 01:00N 39°53' E 002°25'713.3
2017-Sep-22 00:30N 39°51' E 002°17'611.6
2017-Sep-22 00:00N 39°50' E 002°09'7449.1
2017-Sep-22 00:00N 39°48' E 002°00'2 3.1 110 / 81017.910.8 22.017.225.0
2017-Sep-21 23:30N 39°48' E 002°02'611.9
2017-Sep-21 23:00N 39°47' E 001°54'612.1
2017-Sep-21 22:30N 39°46' E 001°47'611.5
2017-Sep-21 22:00N 39°44' E 001°39'612.3
2017-Sep-21 21:30N 39°43' E 001°32'87 7.5
2017-Sep-21 10:00N 39°24' W 000°18'0 0.0 150 / 71016.9 5.4 24.019.425.0
2017-Sep-20 11:00N 39°24' W 000°18'99 5.0 150 / 71019.910.8 23.018.324.0
2017-Sep-19 15:12N 37°45' W 000°21'314.2
2017-Sep-19 15:00N 37°43' W 000°23'713.9
2017-Sep-19 14:30N 37°37' W 000°27'713.6
2017-Sep-19 14:00N 37°32' W 000°33'713.5
2017-Sep-19 13:30N 37°27' W 000°39'713.6
2017-Sep-19 13:00N 37°23' W 000°46'713.5
2017-Sep-19 12:30N 37°18' W 000°52'22014.3
2017-Sep-18 21:06N 36°06' W 005°12'115.1
2017-Sep-18 21:00N 36°06' W 005°13'4 0.3
2017-Sep-18 10:00N 36°06' W 005°18'4 0.8 290 / 81020.8 20.020.018.0
2017-Sep-18 04:39N 36°03' W 005°21'210.8
2017-Sep-18 04:27N 36°01' W 005°21'4 9.9
2017-Sep-18 04:00N 35°58' W 005°25'50 9.9
2017-Sep-17 23:00N 36°12' W 006°24'71 3.4 300 / 171017.9 20.014.918.0
2017-Sep-17 02:24N 36°33' W 007°48'819.1
2017-Sep-17 02:00N 36°33' W 007°58'1018.6
2017-Sep-17 01:26N 36°32' W 008°10'3 6.1
2017-Sep-17 01:00N 36°30' W 008°12'1151.7 350 / 251015.910.8 17.011.517.0
2017-Sep-17 00:47N 36°32' W 008°26'518.8
2017-Sep-17 00:30N 36°32' W 008°32'1419.0
2017-Sep-16 23:47N 36°32' W 008°49'518.9
2017-Sep-16 23:30N 36°32' W 008°56'1018.8
2017-Sep-16 22:59N 36°33' W 009°08'1618.5
2017-Sep-16 22:07N 36°41' W 009°25'436.1
2017-Sep-16 22:00N 36°42' W 009°30'31066.9 360 / 251010.8 17.017.015.0
2017-Sep-16 21:59N 36°43' W 009°27'4218.4
2017-Sep-16 19:42N 37°25' W 009°31'419.4
2017-Sep-16 19:30N 37°29' W 009°31'1019.7
2017-Sep-16 19:00N 37°39' W 009°29'1019.4
2017-Sep-16 18:31N 37°48' W 009°29'1019.4
2017-Sep-16 18:01N 37°58' W 009°28'1019.4
2017-Sep-16 17:31N 38°08' W 009°26'1019.1
2017-Sep-16 17:01N 38°17' W 009°25'1019.1
2017-Sep-16 16:31N 38°26' W 009°23'917.8
2017-Sep-16 16:01N 38°35' W 009°22'917.1
2017-Sep-16 15:30N 38°41' W 009°14'610.8
2017-Sep-16 14:59N 38°43' W 009°07'0 0.0
2017-Sep-16 14:29N 38°43' W 009°07'0 0.0
2017-Sep-16 13:59N 38°43' W 009°07'0 0.0
2017-Sep-16 13:29N 38°43' W 009°07'0 0.0
2017-Sep-16 12:59N 38°43' W 009°07'0 0.0
2017-Sep-16 12:26N 38°43' W 009°07'0 0.0
2017-Sep-16 11:59N 38°43' W 009°07'0 0.0
2017-Sep-16 11:29N 38°43' W 009°07'0 0.0
2017-Sep-16 10:59N 38°43' W 009°07'0 0.0
2017-Sep-16 10:26N 38°43' W 009°07'0 0.0
2017-Sep-16 09:59N 38°43' W 009°07'0 0.0
2017-Sep-16 09:29N 38°43' W 009°07'0 0.0
2017-Sep-16 08:59N 38°43' W 009°07'0 0.0
2017-Sep-16 08:29N 38°43' W 009°07'0 0.0
2017-Sep-16 07:59N 38°43' W 009°07'0 0.0
2017-Sep-16 07:29N 38°43' W 009°07'0 0.0
2017-Sep-16 06:59N 38°43' W 009°07'0 0.0
2017-Sep-16 06:29N 38°43' W 009°07'0 0.0
2017-Sep-16 05:59N 38°43' W 009°07'0 0.0
2017-Sep-16 05:26N 38°43' W 009°07'0 0.0
2017-Sep-16 04:59N 38°43' W 009°07'0 0.0
2017-Sep-16 04:26N 38°43' W 009°07'0 0.0
2017-Sep-16 03:59N 38°43' W 009°07'0 0.0
2017-Sep-16 03:29N 38°43' W 009°07'0 0.0
2017-Sep-16 02:59N 38°43' W 009°07'0 0.0
2017-Sep-16 02:29N 38°43' W 009°07'0 0.0
2017-Sep-16 01:47N 38°43' W 009°07'0 0.0
2017-Sep-16 01:29N 38°43' W 009°07'0 0.0
2017-Sep-16 00:59N 38°43' W 009°07'0 0.0
2017-Sep-16 00:29N 38°43' W 009°07'1 2.6
2017-Sep-16 00:00N 38°42' W 009°06'119.8 360 / 161015.810.8 15.011.318.0
2017-Sep-15 23:56N 38°43' W 009°07'0 0.0
2017-Sep-15 23:29N 38°43' W 009°07'0 0.0
2017-Sep-15 22:53N 38°43' W 009°07'0 0.0
2017-Sep-15 22:29N 38°43' W 009°07'0 0.0
2017-Sep-15 21:59N 38°43' W 009°07'0 0.0
2017-Sep-15 21:29N 38°43' W 009°07'0 0.0
2017-Sep-15 20:59N 38°43' W 009°07'0 0.0
2017-Sep-15 20:29N 38°43' W 009°07'0 0.0
2017-Sep-15 19:59N 38°43' W 009°07'0 0.0
2017-Sep-15 19:29N 38°43' W 009°07'0 0.0
2017-Sep-15 18:59N 38°43' W 009°07'0 0.0
2017-Sep-15 18:26N 38°43' W 009°07'0 0.0
2017-Sep-15 17:59N 38°43' W 009°07'0 0.0
2017-Sep-15 17:20N 38°43' W 009°07'0 0.0
2017-Sep-15 16:59N 38°43' W 009°07'0 0.0
2017-Sep-15 16:29N 38°43' W 009°07'0 0.0
2017-Sep-15 15:47N 38°43' W 009°07'0 0.0
2017-Sep-15 15:23N 38°43' W 009°07'0 0.0
2017-Sep-15 14:59N 38°43' W 009°07'0 0.0
2017-Sep-15 14:29N 38°43' W 009°07'1 2.6
2017-Sep-15 14:00N 38°42' W 009°06'111.2 360 / 161017.910.8 22.0 6.418.0
2017-Sep-15 13:53N 38°43' W 009°07'0 0.0
2017-Sep-15 13:29N 38°43' W 009°07'0 0.0
2017-Sep-15 12:59N 38°43' W 009°07'0 0.0
2017-Sep-15 12:29N 38°43' W 009°07'0 0.0
2017-Sep-15 11:59N 38°43' W 009°07'0 0.0
2017-Sep-15 11:20N 38°43' W 009°07'0 0.0
2017-Sep-15 10:56N 38°43' W 009°07'0 0.0
2017-Sep-15 10:29N 38°43' W 009°07'0 0.0
2017-Sep-15 09:59N 38°43' W 009°07'0 0.0
2017-Sep-15 09:29N 38°43' W 009°07'0 0.0
2017-Sep-15 08:59N 38°43' W 009°07'0 0.0
2017-Sep-15 08:29N 38°43' W 009°07'0 0.5
2017-Sep-15 08:00N 38°43' W 009°07'1 2.7
2017-Sep-15 07:30N 38°42' W 009°09'4 7.2
2017-Sep-15 07:00N 38°41' W 009°13'611.8
2017-Sep-15 06:30N 38°39' W 009°20'611.9
2017-Sep-15 06:00N 38°37' W 009°27'713.5
2017-Sep-15 05:31N 38°36' W 009°36'713.7
2017-Sep-15 05:00N 38°35' W 009°44'613.0
2017-Sep-15 04:30N 38°34' W 009°53'713.3
2017-Sep-15 04:00N 38°34' W 010°01'510.7
2017-Sep-15 03:31N 38°38' W 010°05'714.0
2017-Sep-15 03:01N 38°45' W 010°06'815.8
2017-Sep-15 02:30N 38°53' W 010°06'917.6
2017-Sep-15 02:00N 39°01' W 010°04'917.7
2017-Sep-15 01:30N 39°10' W 010°01'917.1
2017-Sep-15 01:01N 39°18' W 009°58'916.9
2017-Sep-15 00:30N 39°27' W 009°57'4 7.8
2017-Sep-15 00:00N 39°30' W 009°54'11110.1 360 / 331019.9 5.4 16.012.414.0
2017-Sep-14 13:00N 41°06' W 008°42'72 5.6 350 / 171020.9 2.2 18.016.314.0
2017-Sep-14 00:00N 42°06' W 009°36'2525.3 290 / 111021.9 18.016.320.0
2017-Sep-13 23:00N 41°48' W 009°12'14613.2 270 / 181020.810.8 18.018.0
2017-Sep-13 12:00N 44°00' W 007°48'   260 / 221018.8 18.018.020.0
Track history (hours):
 
Tides and Currents Weather Stations Pressure Air Temp Water Temp Dewpoint Dewpoint Depression Visibility Wind Speed Wind Dir Waves Ship Positions

Azamara Journey

Last reported at 2017-Sep-23 11:00 UTC. Time now 2017-Sep-23 14:50 UTC.
Position N 41°48' E 003°06'.

Type: Ship. MMSI: 256204000.

Wind from 070 at 5 knots

Barometer 1019.9 mb
Air temperature 25.0 ° C
Visibility: greater than 10.8 NM
Dewpoint 18.8 ° C
Water temperature 23.0 ° C

Date/timePositionNaut miles runAvg speedWind from/ knotsBaromVisibWave heightAir tempDewpointWater temp
2017-Sep-23 11:00N 41°48' E 003°06'48 4.4 070 / 51019.910.8 25.018.823.0
2017-Sep-23 00:00N 41°00' E 003°06'67 3.1 330 / 31019.9 5.4 21.017.823.0
2017-Sep-22 02:00N 39°56' E 002°40'611.8
2017-Sep-22 01:30N 39°54' E 002°32'611.6
2017-Sep-22 01:00N 39°53' E 002°25'713.3
2017-Sep-22 00:30N 39°51' E 002°17'611.6
2017-Sep-22 00:00N 39°50' E 002°09'7449.1
2017-Sep-22 00:00N 39°48' E 002°00'2 3.1 110 / 81017.910.8 22.017.225.0
2017-Sep-21 23:30N 39°48' E 002°02'611.9
2017-Sep-21 23:00N 39°47' E 001°54'612.1
2017-Sep-21 22:30N 39°46' E 001°47'611.5
2017-Sep-21 22:00N 39°44' E 001°39'612.3
2017-Sep-21 21:30N 39°43' E 001°32'87 7.5
2017-Sep-21 10:00N 39°24' W 000°18'0 0.0 150 / 71016.9 5.4 24.019.425.0
2017-Sep-20 11:00N 39°24' W 000°18'99 5.0 150 / 71019.910.8 23.018.324.0
2017-Sep-19 15:12N 37°45' W 000°21'314.2
2017-Sep-19 15:00N 37°43' W 000°23'713.9
2017-Sep-19 14:30N 37°37' W 000°27'713.6
2017-Sep-19 14:00N 37°32' W 000°33'713.5
2017-Sep-19 13:30N 37°27' W 000°39'713.6
2017-Sep-19 13:00N 37°23' W 000°46'713.5
2017-Sep-19 12:30N 37°18' W 000°52'22014.3
2017-Sep-18 21:06N 36°06' W 005°12'115.1
2017-Sep-18 21:00N 36°06' W 005°13'4 0.3
2017-Sep-18 10:00N 36°06' W 005°18'4 0.8 290 / 81020.8 20.020.018.0
2017-Sep-18 04:39N 36°03' W 005°21'210.8
2017-Sep-18 04:27N 36°01' W 005°21'4 9.9
2017-Sep-18 04:00N 35°58' W 005°25'50 9.9
2017-Sep-17 23:00N 36°12' W 006°24'71 3.4 300 / 171017.9 20.014.918.0
2017-Sep-17 02:24N 36°33' W 007°48'819.1
2017-Sep-17 02:00N 36°33' W 007°58'1018.6
2017-Sep-17 01:26N 36°32' W 008°10'3 6.1
2017-Sep-17 01:00N 36°30' W 008°12'1151.7 350 / 251015.910.8 17.011.517.0
2017-Sep-17 00:47N 36°32' W 008°26'518.8
2017-Sep-17 00:30N 36°32' W 008°32'1419.0
2017-Sep-16 23:47N 36°32' W 008°49'518.9
2017-Sep-16 23:30N 36°32' W 008°56'1018.8
2017-Sep-16 22:59N 36°33' W 009°08'1618.5
2017-Sep-16 22:07N 36°41' W 009°25'436.1
2017-Sep-16 22:00N 36°42' W 009°30'31066.9 360 / 251010.8 17.017.015.0
2017-Sep-16 21:59N 36°43' W 009°27'4218.4
2017-Sep-16 19:42N 37°25' W 009°31'419.4
2017-Sep-16 19:30N 37°29' W 009°31'1019.7
2017-Sep-16 19:00N 37°39' W 009°29'1019.4
2017-Sep-16 18:31N 37°48' W 009°29'1019.4
2017-Sep-16 18:01N 37°58' W 009°28'1019.4
2017-Sep-16 17:31N 38°08' W 009°26'1019.1
2017-Sep-16 17:01N 38°17' W 009°25'1019.1
2017-Sep-16 16:31N 38°26' W 009°23'917.8
2017-Sep-16 16:01N 38°35' W 009°22'917.1
2017-Sep-16 15:30N 38°41' W 009°14'610.8
2017-Sep-16 14:59N 38°43' W 009°07'0 0.0
2017-Sep-16 14:29N 38°43' W 009°07'0 0.0
2017-Sep-16 13:59N 38°43' W 009°07'0 0.0
2017-Sep-16 13:29N 38°43' W 009°07'0 0.0
2017-Sep-16 12:59N 38°43' W 009°07'0 0.0
2017-Sep-16 12:26N 38°43' W 009°07'0 0.0
2017-Sep-16 11:59N 38°43' W 009°07'0 0.0
2017-Sep-16 11:29N 38°43' W 009°07'0 0.0
2017-Sep-16 10:59N 38°43' W 009°07'0 0.0
2017-Sep-16 10:26N 38°43' W 009°07'0 0.0
2017-Sep-16 09:59N 38°43' W 009°07'0 0.0
2017-Sep-16 09:29N 38°43' W 009°07'0 0.0
2017-Sep-16 08:59N 38°43' W 009°07'0 0.0
2017-Sep-16 08:29N 38°43' W 009°07'0 0.0
2017-Sep-16 07:59N 38°43' W 009°07'0 0.0
2017-Sep-16 07:29N 38°43' W 009°07'0 0.0
2017-Sep-16 06:59N 38°43' W 009°07'0 0.0
2017-Sep-16 06:29N 38°43' W 009°07'0 0.0
2017-Sep-16 05:59N 38°43' W 009°07'0 0.0
2017-Sep-16 05:26N 38°43' W 009°07'0 0.0
2017-Sep-16 04:59N 38°43' W 009°07'0 0.0
2017-Sep-16 04:26N 38°43' W 009°07'0 0.0
2017-Sep-16 03:59N 38°43' W 009°07'0 0.0
2017-Sep-16 03:29N 38°43' W 009°07'0 0.0
2017-Sep-16 02:59N 38°43' W 009°07'0 0.0
2017-Sep-16 02:29N 38°43' W 009°07'0 0.0
2017-Sep-16 01:47N 38°43' W 009°07'0 0.0
2017-Sep-16 01:29N 38°43' W 009°07'0 0.0
2017-Sep-16 00:59N 38°43' W 009°07'0 0.0
2017-Sep-16 00:29N 38°43' W 009°07'1 2.6
2017-Sep-16 00:00N 38°42' W 009°06'119.8 360 / 161015.810.8 15.011.318.0
2017-Sep-15 23:56N 38°43' W 009°07'0 0.0
2017-Sep-15 23:29N 38°43' W 009°07'0 0.0
2017-Sep-15 22:53N 38°43' W 009°07'0 0.0
2017-Sep-15 22:29N 38°43' W 009°07'0 0.0
2017-Sep-15 21:59N 38°43' W 009°07'0 0.0
2017-Sep-15 21:29N 38°43' W 009°07'0 0.0
2017-Sep-15 20:59N 38°43' W 009°07'0 0.0
2017-Sep-15 20:29N 38°43' W 009°07'0 0.0
2017-Sep-15 19:59N 38°43' W 009°07'0 0.0
2017-Sep-15 19:29N 38°43' W 009°07'0 0.0
2017-Sep-15 18:59N 38°43' W 009°07'0 0.0
2017-Sep-15 18:26N 38°43' W 009°07'0 0.0
2017-Sep-15 17:59N 38°43' W 009°07'0 0.0
2017-Sep-15 17:20N 38°43' W 009°07'0 0.0
2017-Sep-15 16:59N 38°43' W 009°07'0 0.0
2017-Sep-15 16:29N 38°43' W 009°07'0 0.0
2017-Sep-15 15:47N 38°43' W 009°07'0 0.0
2017-Sep-15 15:23N 38°43' W 009°07'0 0.0
2017-Sep-15 14:59N 38°43' W 009°07'0 0.0
2017-Sep-15 14:29N 38°43' W 009°07'1 2.6
2017-Sep-15 14:00N 38°42' W 009°06'111.2 360 / 161017.910.8 22.0 6.418.0
2017-Sep-15 13:53N 38°43' W 009°07'0 0.0
2017-Sep-15 13:29N 38°43' W 009°07'0 0.0
2017-Sep-15 12:59N 38°43' W 009°07'0 0.0
2017-Sep-15 12:29N 38°43' W 009°07'0 0.0
2017-Sep-15 11:59N 38°43' W 009°07'0 0.0
2017-Sep-15 11:20N 38°43' W 009°07'0 0.0
2017-Sep-15 10:56N 38°43' W 009°07'0 0.0
2017-Sep-15 10:29N 38°43' W 009°07'0 0.0
2017-Sep-15 09:59N 38°43' W 009°07'0 0.0
2017-Sep-15 09:29N 38°43' W 009°07'0 0.0
2017-Sep-15 08:59N 38°43' W 009°07'0 0.0
2017-Sep-15 08:29N 38°43' W 009°07'0 0.5
2017-Sep-15 08:00N 38°43' W 009°07'1 2.7
2017-Sep-15 07:30N 38°42' W 009°09'4 7.2
2017-Sep-15 07:00N 38°41' W 009°13'611.8
2017-Sep-15 06:30N 38°39' W 009°20'611.9
2017-Sep-15 06:00N 38°37' W 009°27'713.5
2017-Sep-15 05:31N 38°36' W 009°36'713.7
2017-Sep-15 05:00N 38°35' W 009°44'613.0
2017-Sep-15 04:30N 38°34' W 009°53'713.3
2017-Sep-15 04:00N 38°34' W 010°01'510.7
2017-Sep-15 03:31N 38°38' W 010°05'714.0
2017-Sep-15 03:01N 38°45' W 010°06'815.8
2017-Sep-15 02:30N 38°53' W 010°06'917.6
2017-Sep-15 02:00N 39°01' W 010°04'917.7
2017-Sep-15 01:30N 39°10' W 010°01'917.1
2017-Sep-15 01:01N 39°18' W 009°58'916.9
2017-Sep-15 00:30N 39°27' W 009°57'4 7.8
2017-Sep-15 00:00N 39°30' W 009°54'11110.1 360 / 331019.9 5.4 16.012.414.0
2017-Sep-14 13:00N 41°06' W 008°42'72 5.6 350 / 171020.9 2.2 18.016.314.0
2017-Sep-14 00:00N 42°06' W 009°36'2525.3 290 / 111021.9 18.016.320.0
2017-Sep-13 23:00N 41°48' W 009°12'14613.2 270 / 181020.810.8 18.018.0
2017-Sep-13 12:00N 44°00' W 007°48'   260 / 221018.8 18.018.020.0

Dump ship's entire track history